Time;durP1;ratioP1;P1;durP2;ratioP2;P2;SDS_P1;SDS_P2;PMS_P1;PMS_P2;Temp;Humidity;BMP_temperature;BMP_pressure;BME280_temperature;BME280_humidity;BME280_pressure;Samples;Min_cycle;Max_cycle;Signal;HPM_P1;HPM_P2
2022/11/09 00:00:49;;;;;;;150.60;105.60;;;;;;;2.64;100.00;99095.21;106357;1285;58771;-76
2022/11/09 00:03:16;;;;;;;147.30;103.70;;;;;;;2.61;100.00;99098.82;106352;1285;66070;-77
2022/11/09 00:05:42;;;;;;;146.60;101.50;;;;;;;2.56;100.00;99096.19;106053;1289;69967;-76
2022/11/09 00:08:10;;;;;;;151.90;105.30;;;;;;;2.50;100.00;99099.71;106359;1286;73936;-76
2022/11/09 00:10:37;;;;;;;149.00;105.90;;;;;;;2.45;100.00;99096.72;106346;1278;59104;-76
2022/11/09 00:13:04;;;;;;;148.80;109.30;;;;;;;2.41;100.00;99096.14;106367;1284;59381;-76
2022/11/09 00:15:31;;;;;;;146.00;105.50;;;;;;;2.39;100.00;99092.52;106342;1285;67151;-77
2022/11/09 00:18:04;;;;;;;160.70;113.80;;;;;;;2.35;100.00;99093.00;106355;1282;61310;-76
2022/11/09 00:20:30;;;;;;;154.80;112.70;;;;;;;2.33;100.00;99091.68;106353;1284;64114;-76
2022/11/09 00:22:57;;;;;;;154.90;112.30;;;;;;;2.29;100.00;99099.69;106358;1292;58964;-76
2022/11/09 00:25:23;;;;;;;154.00;115.80;;;;;;;2.26;100.00;99098.58;106384;1291;58870;-73
2022/11/09 00:27:50;;;;;;;163.20;117.20;;;;;;;2.25;100.00;99101.77;106338;1284;66990;-76
2022/11/09 00:30:17;;;;;;;152.70;114.10;;;;;;;2.24;100.00;99103.54;106370;1278;61000;-76
2022/11/09 00:32:43;;;;;;;158.00;113.20;;;;;;;2.23;100.00;99101.80;106352;1284;64001;-76
2022/11/09 00:35:10;;;;;;;157.40;116.60;;;;;;;2.20;100.00;99098.39;106359;1285;58950;-76
2022/11/09 00:37:36;;;;;;;167.60;122.30;;;;;;;2.19;100.00;99100.70;106075;1287;58849;-75
2022/11/09 00:40:03;;;;;;;162.20;120.90;;;;;;;2.20;100.00;99100.86;106356;1285;67173;-76
2022/11/09 00:42:29;;;;;;;158.70;118.10;;;;;;;2.20;100.00;99097.16;106364;1285;61228;-77
2022/11/09 00:44:56;;;;;;;164.00;120.20;;;;;;;2.18;100.00;99097.20;106072;1284;58937;-76
2022/11/09 00:47:23;;;;;;;161.50;116.20;;;;;;;2.17;100.00;99096.02;106358;1286;58892;-77
2022/11/09 00:49:49;;;;;;;168.70;163.00;;;;;;;2.16;100.00;99093.80;106380;1278;58861;-76
2022/11/09 00:52:16;;;;;;;162.40;120.00;;;;;;;2.13;100.00;99093.34;106353;1278;73693;-77
2022/11/09 00:54:42;;;;;;;154.70;113.80;;;;;;;2.13;100.00;99093.52;106355;1286;68826;-76
2022/11/09 00:57:11;;;;;;;156.30;114.40;;;;;;;2.13;100.00;99089.16;106148;1287;63987;-76
2022/11/09 00:59:38;;;;;;;154.30;117.20;;;;;;;2.10;100.00;99095.19;106365;1286;58857;-76
2022/11/09 01:02:04;;;;;;;154.60;115.90;;;;;;;2.08;100.00;99091.40;106363;1285;58838;-75
2022/11/09 01:04:31;;;;;;;147.30;114.00;;;;;;;2.04;100.00;99089.59;106355;1285;65963;-76
2022/11/09 01:06:57;;;;;;;153.70;112.40;;;;;;;2.01;100.00;99089.50;106356;1285;61306;-76
2022/11/09 01:09:24;;;;;;;148.70;113.70;;;;;;;1.98;100.00;99089.60;106139;1292;64025;-75
2022/11/09 01:11:50;;;;;;;147.70;113.00;;;;;;;1.96;100.00;99081.25;106354;1283;59764;-76
2022/11/09 01:14:17;;;;;;;150.50;111.40;;;;;;;1.94;100.00;99078.52;106368;1287;58686;-75
2022/11/09 01:16:44;;;;;;;150.80;112.60;;;;;;;1.91;100.00;99084.73;106334;1286;75598;-75
2022/11/09 01:19:11;;;;;;;152.90;114.50;;;;;;;1.89;100.00;99086.91;106361;1284;68707;-75
2022/11/09 01:21:38;;;;;;;154.90;112.70;;;;;;;1.87;100.00;99089.41;106366;1286;71644;-75
2022/11/09 01:24:05;;;;;;;162.90;119.40;;;;;;;1.84;100.00;99087.58;106328;1284;58879;-76
2022/11/09 01:26:32;;;;;;;159.90;119.50;;;;;;;1.81;100.00;99081.02;106350;1286;60963;-76
2022/11/09 01:28:59;;;;;;;164.50;118.00;;;;;;;1.81;100.00;99083.98;106388;1285;67628;-75
2022/11/09 01:31:26;;;;;;;154.00;121.30;;;;;;;1.84;100.00;99087.75;106362;1284;60409;-76
2022/11/09 01:33:52;;;;;;;155.20;117.90;;;;;;;1.87;100.00;99084.70;106339;1292;72767;-75
2022/11/09 01:36:21;;;;;;;150.30;115.10;;;;;;;1.89;100.00;99082.70;106363;1286;58901;-75
2022/11/09 01:38:49;;;;;;;153.70;114.00;;;;;;;1.93;100.00;99089.23;106116;1289;58931;-76
2022/11/09 01:41:23;;;;;;;155.70;113.10;;;;;;;1.94;100.00;99090.45;106356;1285;65804;-76
2022/11/09 01:44:04;;;;;;;153.90;112.10;;;;;;;1.93;100.00;99084.15;106361;1285;60864;-75
2022/11/09 01:46:54;;;;;;;154.40;114.70;;;;;;;1.91;100.00;99077.73;106268;1281;64094;-76
2022/11/09 01:49:37;;;;;;;151.50;112.20;;;;;;;1.89;100.00;99074.98;105847;1290;58981;-76
2022/11/09 01:52:07;;;;;;;146.90;112.30;;;;;;;1.88;100.00;99067.12;105814;1292;59424;-75
2022/11/09 01:54:37;;;;;;;;;;;;;;;1.89;100.00;99069.91;105847;1290;67240;-76
2022/11/09 01:57:09;;;;;;;137.40;105.90;;;;;;;1.85;100.00;99066.34;105873;1292;60121;-76
2022/11/09 01:59:39;;;;;;;143.00;106.30;;;;;;;1.81;100.00;99062.98;105834;1292;63918;-76
2022/11/09 02:02:06;;;;;;;138.40;106.50;;;;;;;1.78;100.00;99067.27;105680;1295;59027;-76
2022/11/09 02:04:38;;;;;;;143.10;106.90;;;;;;;1.73;100.00;99065.86;105859;1291;59003;-76
2022/11/09 02:07:06;;;;;;;136.40;105.00;;;;;;;1.67;100.00;99054.98;105848;1290;66062;-76
2022/11/09 02:09:52;;;;;;;135.50;106.10;;;;;;;1.62;100.00;99056.36;105826;1288;61291;-76
2022/11/09 02:12:21;;;;;;;136.70;101.60;;;;;;;1.60;100.00;99056.27;105859;1291;65193;-76
2022/11/09 02:14:49;;;;;;;140.70;106.40;;;;;;;1.57;100.00;99058.45;105813;1297;58959;-76
2022/11/09 02:17:17;;;;;;;138.10;107.40;;;;;;;1.55;100.00;99056.73;105102;1292;1003130;-76
2022/11/09 02:19:44;;;;;;;141.30;109.40;;;;;;;1.54;100.00;99050.11;105857;1290;65797;-75
2022/11/09 02:22:11;;;;;;;137.60;105.70;;;;;;;1.51;100.00;99048.09;105862;1291;61204;-76
2022/11/09 02:24:37;;;;;;;141.70;105.90;;;;;;;1.48;100.00;99050.10;105838;1297;65151;-75
2022/11/09 02:27:05;;;;;;;143.10;106.00;;;;;;;1.44;100.00;99043.57;105912;1289;58898;-75
2022/11/09 02:29:36;;;;;;;142.30;108.20;;;;;;;1.40;100.00;99043.20;106360;1278;58936;-76
2022/11/09 02:32:07;;;;;;;141.30;110.00;;;;;;;1.36;100.00;99036.99;106347;1284;64630;-75
2022/11/09 02:34:34;;;;;;;146.40;112.00;;;;;;;1.34;100.00;99035.84;106125;1288;61081;-76
2022/11/09 02:37:00;;;;;;;138.10;105.50;;;;;;;1.32;100.00;99036.94;106370;1285;64074;-75
2022/11/09 02:39:27;;;;;;;143.90;112.00;;;;;;;1.30;100.00;99030.67;106331;1285;58844;-76
2022/11/09 02:42:08;;;;;;;141.50;108.60;;;;;;;1.28;100.00;99034.41;106352;1285;58916;-75
2022/11/09 02:44:39;;;;;;;140.20;105.90;;;;;;;1.27;100.00;99032.17;105600;1286;1002854;-75
2022/11/09 02:47:06;;;;;;;146.90;109.10;;;;;;;1.25;100.00;99028.71;106329;1284;60107;-76
2022/11/09 02:49:32;;;;;;;140.40;106.50;;;;;;;1.25;100.00;99029.63;106339;1292;73536;-76
2022/11/09 02:51:59;;;;;;;142.10;103.70;;;;;;;1.22;100.00;99030.20;106362;1285;58939;-76
2022/11/09 02:54:25;;;;;;;131.50;100.60;;;;;;;1.20;100.00;99036.39;106364;1285;58825;-76
2022/11/09 02:56:52;;;;;;;140.70;107.30;;;;;;;1.18;100.00;99035.05;106325;1285;59230;-77
2022/11/09 02:59:18;;;;;;;144.00;108.50;;;;;;;1.18;100.00;99039.79;106350;1287;59338;-76
2022/11/09 03:01:45;;;;;;;131.20;95.70;;;;;;;1.19;100.00;99042.36;106335;1285;65054;-76
2022/11/09 03:04:11;;;;;;;136.10;103.40;;;;;;;1.26;100.00;99045.50;106336;1285;58928;-76
2022/11/09 03:06:38;;;;;;;125.30;95.40;;;;;;;1.31;100.00;99050.24;106142;1289;59620;-76
2022/11/09 03:09:08;;;;;;;136.00;102.50;;;;;;;1.35;100.00;99053.81;106360;1284;74838;-76
2022/11/09 03:11:35;;;;;;;;;;;;;;;1.37;100.00;99056.58;106394;1284;68919;-76
2022/11/09 03:14:02;;;;;;;133.80;100.40;;;;;;;1.37;100.00;99053.42;106362;1286;65189;-76
2022/11/09 03:16:29;;;;;;;124.30;97.30;;;;;;;1.40;100.00;99062.25;106325;1286;58835;-76
2022/11/09 03:18:57;;;;;;;132.30;99.10;;;;;;;1.42;100.00;99065.16;106352;1285;59193;-76
2022/11/09 03:21:23;;;;;;;130.20;98.20;;;;;;;1.41;100.00;99062.91;106325;1285;75836;-76
2022/11/09 03:23:50;;;;;;;133.70;102.70;;;;;;;1.41;100.00;99066.95;106380;1278;67589;-76
2022/11/09 03:26:17;;;;;;;134.00;100.80;;;;;;;1.41;100.00;99061.34;106349;1284;62774;-76
2022/11/09 03:28:43;;;;;;;130.80;99.20;;;;;;;1.42;100.00;99061.49;106388;1285;58851;-77
2022/11/09 03:31:10;;;;;;;126.00;98.80;;;;;;;1.42;100.00;99061.67;106343;1285;58944;-77
2022/11/09 03:33:36;;;;;;;127.50;98.50;;;;;;;1.41;100.00;99058.02;106323;1284;67171;-76
2022/11/09 03:36:03;;;;;;;128.10;94.10;;;;;;;1.39;100.00;99055.80;106284;1284;67784;-76
2022/11/09 03:38:30;;;;;;;120.70;92.70;;;;;;;1.36;100.00;99054.50;106341;1285;73873;-77
2022/11/09 03:41:01;;;;;;;130.50;95.60;;;;;;;1.31;100.00;99059.36;106346;1286;58961;-76
2022/11/09 03:43:28;;;;;;;132.60;99.50;;;;;;;1.26;100.00;99062.48;106337;1285;58954;-76
2022/11/09 03:45:55;;;;;;;131.80;100.50;;;;;;;1.24;100.00;99057.98;106341;1286;67197;-77
2022/11/09 03:48:22;;;;;;;124.40;98.40;;;;;;;1.24;100.00;99055.73;106362;1286;67461;-76
2022/11/09 03:50:48;;;;;;;125.20;95.10;;;;;;;1.24;100.00;99054.84;105592;1285;1003000;-77
2022/11/09 03:53:15;;;;;;;123.60;96.70;;;;;;;1.23;100.00;99052.94;106319;1276;59803;-77
2022/11/09 03:55:42;;;;;;;122.30;92.60;;;;;;;1.21;100.00;99053.88;106375;1285;59085;-76
2022/11/09 03:58:10;;;;;;;127.60;93.80;;;;;;;1.15;100.00;99050.36;106339;1285;67207;-76
2022/11/09 04:00:36;;;;;;;129.00;96.20;;;;;;;1.12;100.00;99047.48;106136;1288;61237;-76
2022/11/09 04:03:03;;;;;;;111.00;88.70;;;;;;;1.10;100.00;99048.04;106359;1278;65223;-77
2022/11/09 04:05:30;;;;;;;116.00;88.60;;;;;;;1.07;100.00;99044.30;106339;1286;58833;-77
2022/11/09 04:07:57;;;;;;;119.50;92.70;;;;;;;1.00;100.00;99046.23;106355;1284;59015;-77
2022/11/09 04:10:25;;;;;;;115.30;90.10;;;;;;;0.93;100.00;99040.11;106371;1277;75866;-77
2022/11/09 04:12:52;;;;;;;120.60;93.00;;;;;;;0.88;100.00;99044.98;106365;1286;68437;-77
2022/11/09 04:15:19;;;;;;;117.10;91.30;;;;;;;0.87;100.00;99043.95;106342;1282;65432;-77
2022/11/09 04:17:57;;;;;;;124.60;95.10;;;;;;;0.87;100.00;99038.36;106254;1289;58842;-78
2022/11/09 04:20:25;;;;;;;125.50;97.50;;;;;;;0.87;100.00;99034.86;106345;1285;59078;-77
2022/11/09 04:22:54;;;;;;;137.30;106.80;;;;;;;0.87;100.00;99031.54;106197;1285;174859;-76
2022/11/09 04:25:21;;;;;;;132.20;101.20;;;;;;;0.87;100.00;99030.48;106306;1285;60736;-77
2022/11/09 04:27:53;;;;;;;122.20;91.70;;;;;;;0.86;100.00;99029.45;106346;1286;72945;-76
2022/11/09 04:30:19;;;;;;;115.50;87.90;;;;;;;0.84;100.00;99021.11;106353;1285;58854;-77
2022/11/09 04:32:46;;;;;;;117.40;88.80;;;;;;;0.82;100.00;99016.46;106349;1278;58831;-77
2022/11/09 04:35:12;;;;;;;116.50;89.50;;;;;;;0.82;100.00;99019.08;106347;1284;58898;-77
2022/11/09 04:37:39;;;;;;;120.60;87.10;;;;;;;0.84;100.00;99020.95;106337;1285;60180;-76
2022/11/09 04:40:06;;;;;;;117.10;89.00;;;;;;;0.86;100.00;99023.52;106340;1278;73641;-77
2022/11/09 04:42:32;;;;;;;112.70;86.90;;;;;;;0.86;100.00;99022.11;106078;1285;58907;-76
2022/11/09 04:44:59;;;;;;;110.40;83.40;;;;;;;0.88;100.00;99018.73;106343;1284;59140;-75
2022/11/09 04:47:26;;;;;;;116.00;87.20;;;;;;;0.92;100.00;99020.39;106352;1285;75822;-75
2022/11/09 04:49:52;;;;;;;117.10;87.70;;;;;;;0.93;100.00;99019.84;106370;1278;69213;-75
2022/11/09 04:52:19;;;;;;;107.60;83.30;;;;;;;0.92;100.00;99022.31;106336;1286;65165;-76
2022/11/09 04:54:45;;;;;;;113.30;83.20;;;;;;;0.93;100.00;99022.63;106330;1285;58810;-76
2022/11/09 04:57:12;;;;;;;107.00;83.20;;;;;;;0.94;100.00;99023.82;106119;1287;58834;-76
2022/11/09 04:59:38;;;;;;;108.50;81.60;;;;;;;0.94;100.00;99024.85;106387;1286;59586;-76
2022/11/09 05:02:05;;;;;;;112.00;83.60;;;;;;;0.95;100.00;99030.80;106357;1284;58814;-76
2022/11/09 05:04:31;;;;;;;114.60;86.10;;;;;;;0.96;100.00;99029.36;106346;1285;64088;-76
2022/11/09 05:06:58;;;;;;;110.40;83.20;;;;;;;0.98;100.00;99027.71;106348;1278;58792;-76
2022/11/09 05:09:24;;;;;;;109.40;84.70;;;;;;;1.02;100.00;99028.68;106373;1285;58774;-76
2022/11/09 05:11:51;;;;;;;112.90;85.20;;;;;;;1.06;100.00;99028.73;106349;1286;67245;-76
2022/11/09 05:14:17;;;;;;;106.60;80.40;;;;;;;1.11;100.00;99030.34;106388;1272;59003;-76
2022/11/09 05:16:45;;;;;;;109.70;81.90;;;;;;;1.17;100.00;99030.71;106357;1285;58998;-76
2022/11/09 05:19:12;;;;;;;108.00;79.40;;;;;;;1.23;100.00;99032.64;106375;1278;58939;-76
2022/11/09 05:21:39;;;;;;;107.80;76.90;;;;;;;1.26;100.00;99031.67;106343;1286;58883;-76
2022/11/09 05:24:06;;;;;;;108.80;80.50;;;;;;;1.29;100.00;99029.66;106335;1286;65992;-76
2022/11/09 05:26:35;;;;;;;105.10;81.80;;;;;;;1.33;100.00;99030.41;106344;1284;60053;-75
2022/11/09 05:29:07;;;;;;;112.00;85.30;;;;;;;1.36;100.00;99031.92;106352;1278;64044;-76
2022/11/09 05:31:35;;;;;;;108.60;81.60;;;;;;;1.37;100.00;99033.65;106276;1290;58835;-77
2022/11/09 05:34:02;;;;;;;104.20;81.30;;;;;;;1.39;100.00;99039.18;106346;1285;58866;-77
2022/11/09 05:36:29;;;;;;;101.30;78.30;;;;;;;1.42;100.00;99034.02;106345;1285;74620;-76
2022/11/09 05:38:57;;;;;;;101.20;74.10;;;;;;;1.45;100.00;99033.23;106362;1284;60175;-75
2022/11/09 05:41:24;;;;;;;98.90;76.90;;;;;;;1.49;100.00;99035.56;106352;1293;65181;-76
2022/11/09 05:43:51;;;;;;;98.20;73.40;;;;;;;1.51;100.00;99034.44;106342;1285;59153;-76
2022/11/09 05:46:18;;;;;;;97.40;75.10;;;;;;;1.54;100.00;99034.36;106369;1284;59336;-76
2022/11/09 05:48:45;;;;;;;92.60;72.90;;;;;;;1.56;100.00;99033.44;104878;1286;1002963;-76
2022/11/09 05:51:13;;;;;;;98.10;72.30;;;;;;;1.59;100.00;99033.85;106372;1284;60112;-77
2022/11/09 05:53:40;;;;;;;96.20;73.70;;;;;;;1.63;100.00;99038.48;106266;1284;63440;-77
2022/11/09 05:56:09;;;;;;;93.70;72.30;;;;;;;1.65;100.00;99036.30;106352;1285;60025;-77
2022/11/09 05:58:37;;;;;;;94.90;74.90;;;;;;;1.67;100.00;99033.95;106122;1289;58805;-77
2022/11/09 06:01:06;;;;;;;87.00;67.50;;;;;;;1.71;100.00;99034.36;106366;1286;72560;-77
2022/11/09 06:03:33;;;;;;;92.50;73.00;;;;;;;1.76;100.00;99036.84;106341;1284;59949;-77
2022/11/09 06:06:01;;;;;;;91.40;70.60;;;;;;;1.81;100.00;99032.31;106358;1285;64540;-77
2022/11/09 06:08:28;;;;;;;80.90;63.40;;;;;;;1.86;100.00;99029.52;106120;1287;58896;-77
2022/11/09 06:10:59;;;;;;;88.60;67.10;;;;;;;1.91;100.00;99035.34;106363;1286;59529;-76
2022/11/09 06:13:27;;;;;;;81.70;63.70;;;;;;;1.95;100.00;99032.59;106364;1278;66133;-76
2022/11/09 06:15:55;;;;;;;76.90;59.60;;;;;;;2.02;100.00;99033.76;106348;1279;60131;-76
2022/11/09 06:18:27;;;;;;;83.00;61.80;;;;;;;2.10;100.00;99038.07;106368;1284;62347;-76
2022/11/09 06:20:56;;;;;;;76.70;63.30;;;;;;;2.18;100.00;99043.96;106368;1278;59022;-76
2022/11/09 06:23:24;;;;;;;76.40;61.90;;;;;;;2.25;100.00;99046.35;106364;1285;58807;-76
2022/11/09 06:25:59;;;;;;;75.30;60.40;;;;;;;2.32;100.00;99044.38;106381;1285;66882;-76
2022/11/09 06:28:26;;;;;;;71.10;56.40;;;;;;;2.40;100.00;99043.59;106348;1285;59914;-76
2022/11/09 06:30:56;;;;;;;76.20;57.40;;;;;;;2.49;100.00;99047.14;106255;1275;65548;-76
2022/11/09 06:33:22;;;;;;;73.30;57.30;;;;;;;2.58;100.00;99050.88;106350;1286;59101;-75
2022/11/09 06:35:49;;;;;;;78.20;58.80;;;;;;;2.66;100.00;99048.52;106349;1286;58842;-76
2022/11/09 06:38:15;;;;;;;74.60;59.40;;;;;;;2.74;100.00;99054.35;106345;1278;67283;-77
2022/11/09 06:40:42;;;;;;;75.50;59.40;;;;;;;2.83;100.00;99054.59;106368;1278;60138;-78
2022/11/09 06:43:09;;;;;;;73.30;58.50;;;;;;;2.92;100.00;99053.75;106371;1285;65043;-76
2022/11/09 06:45:35;;;;;;;72.50;58.40;;;;;;;2.99;100.00;99053.16;106351;1286;59098;-76
2022/11/09 06:48:02;;;;;;;69.70;59.00;;;;;;;3.05;100.00;99053.64;106368;1285;58969;-76
2022/11/09 06:50:31;;;;;;;72.50;60.30;;;;;;;3.12;100.00;99049.70;106366;1285;64598;-76
2022/11/09 06:52:59;;;;;;;76.70;60.20;;;;;;;3.21;100.00;99054.65;106359;1285;60982;-76
2022/11/09 06:55:27;;;;;;;74.00;59.60;;;;;;;3.29;100.00;99051.71;106349;1282;72401;-76
2022/11/09 06:57:56;;;;;;;76.50;60.10;;;;;;;3.38;100.00;99049.46;106252;1284;58825;-74
2022/11/09 07:00:24;;;;;;;75.50;58.50;;;;;;;3.46;100.00;99051.62;106335;1285;58753;-73
2022/11/09 07:02:51;;;;;;;70.50;59.80;;;;;;;3.58;100.00;99053.14;106225;1281;65995;-75
2022/11/09 07:05:17;;;;;;;70.90;56.40;;;;;;;3.68;100.00;99055.71;106377;1286;60979;-76
2022/11/09 07:07:44;;;;;;;68.00;57.00;;;;;;;3.79;100.00;99054.06;106371;1278;63952;-76
2022/11/09 07:10:12;;;;;;;68.60;56.20;;;;;;;3.90;100.00;99052.75;106348;1285;58947;-75
2022/11/09 07:12:38;;;;;;;66.30;53.80;;;;;;;4.02;100.00;99044.23;106379;1285;58798;-75
2022/11/09 07:15:05;;;;;;;83.50;64.90;;;;;;;4.11;100.00;99043.52;106369;1284;65938;-77
2022/11/09 07:17:35;;;;;;;66.70;56.10;;;;;;;4.21;100.00;99046.64;106087;1281;67814;-78
2022/11/09 07:20:06;;;;;;;68.40;55.90;;;;;;;4.30;100.00;99046.77;105942;1286;73890;-76
2022/11/09 07:22:38;;;;;;;63.20;51.00;;;;;;;4.39;100.00;99036.92;106267;1286;58881;-76
2022/11/09 07:25:06;;;;;;;58.50;51.40;;;;;;;4.48;100.00;99037.09;106318;1284;58690;-75
2022/11/09 07:27:33;;;;;;;64.60;52.40;;;;;;;4.58;100.00;99035.61;106306;1285;75057;-76
2022/11/09 07:30:00;;;;;;;61.90;48.50;;;;;;;4.69;100.00;99034.42;106300;1284;60104;-76
2022/11/09 07:32:27;;;;;;;55.80;48.40;;;;;;;4.79;100.00;99035.08;106312;1285;64034;-76
2022/11/09 07:34:53;;;;;;;53.90;45.50;;;;;;;4.86;100.00;99034.77;106331;1285;58910;-76
2022/11/09 07:37:20;;;;;;;54.80;45.80;;;;;;;4.94;100.00;99041.46;106342;1285;58848;-75
2022/11/09 07:39:46;;;;;;;51.00;43.30;;;;;;;5.03;100.00;99043.22;106333;1285;66992;-76
2022/11/09 07:42:13;;;;;;;54.60;42.50;;;;;;;5.12;100.00;99039.13;106060;1285;61001;-76
2022/11/09 07:44:39;;;;;;;51.20;42.50;;;;;;;5.24;100.00;99035.06;106307;1279;72451;-76
2022/11/09 07:47:06;;;;;;;50.50;42.10;;;;;;;5.34;100.00;99033.19;106310;1280;58841;-76
2022/11/09 07:49:32;;;;;;;51.60;43.50;;;;;;;5.45;100.00;99023.38;106292;1286;59032;-75
2022/11/09 07:51:59;;;;;;;54.20;42.50;;;;;;;5.56;100.00;99019.88;106083;1284;64521;-76
2022/11/09 07:54:25;;;;;;;62.60;49.80;;;;;;;5.68;100.00;99020.54;106319;1286;68687;-76
2022/11/09 07:56:52;;;;;;;66.00;54.10;;;;;;;5.80;100.00;99018.92;106318;1278;71753;-76
2022/11/09 07:59:19;;;;;;;61.90;52.20;;;;;;;5.92;100.00;99013.43;106329;1278;58781;-77
2022/11/09 08:01:45;;;;;;;66.90;55.50;;;;;;;6.03;100.00;99010.99;106111;1280;58856;-75
2022/11/09 08:04:13;;;;;;;58.00;47.90;;;;;;;6.14;100.00;99008.69;106327;1285;64670;-75
2022/11/09 08:06:40;;;;;;;53.30;46.10;;;;;;;6.21;100.00;99008.19;106315;1278;60173;-76
2022/11/09 08:09:06;;;;;;;56.60;46.10;;;;;;;6.30;100.00;99007.73;106319;1278;72368;-77
2022/11/09 08:11:33;;;;;;;55.50;46.00;;;;;;;6.39;100.00;99005.15;106320;1285;59352;-76
2022/11/09 08:13:59;;;;;;;52.10;44.50;;;;;;;6.53;100.00;99004.98;106319;1285;58831;-75
2022/11/09 08:16:26;;;;;;;50.70;42.50;;;;;;;6.66;100.00;99000.63;106300;1276;65703;-76
2022/11/09 08:18:53;;;;;;;51.30;43.80;;;;;;;6.78;100.00;98998.25;106384;1278;61240;-75
2022/11/09 08:21:20;;;;;;;51.00;43.30;;;;;;;6.86;100.00;98996.80;106350;1285;64245;-76
2022/11/09 08:23:46;;;;;;;57.30;44.00;;;;;;;6.91;100.00;99000.05;106105;1289;58898;-75
2022/11/09 08:26:13;;;;;;;52.30;44.40;;;;;;;6.98;100.00;98999.72;106369;1278;59043;-75
2022/11/09 08:28:39;;;;;;;52.50;43.00;;;;;;;7.06;100.00;98995.91;106354;1278;67180;-76
2022/11/09 08:31:07;;;;;;;55.70;44.70;;;;;;;7.22;100.00;98995.79;106357;1278;61316;-75
2022/11/09 08:33:39;;;;;;;54.60;44.00;;;;;;;7.40;100.00;98990.58;106335;1281;73938;-73
2022/11/09 08:36:11;;;;;;;57.70;45.50;;;;;;;7.56;100.00;98990.77;106351;1286;58929;-76
2022/11/09 08:38:38;;;;;;;55.80;44.60;;;;;;;7.71;100.00;98992.05;106360;1285;58814;-76
2022/11/09 08:41:04;;;;;;;52.00;43.80;;;;;;;7.85;100.00;98991.96;106367;1285;65931;-77
2022/11/09 08:43:31;;;;;;;49.30;42.60;;;;;;;7.99;100.00;98993.84;106354;1284;60224;-75
2022/11/09 08:45:57;;;;;;;49.80;41.90;;;;;;;8.17;100.00;98995.88;106360;1278;65113;-76
2022/11/09 08:48:24;;;;;;;51.10;43.40;;;;;;;8.34;100.00;98993.63;106364;1285;58870;-75
2022/11/09 08:50:56;;;;;;;53.00;44.80;;;;;;;8.56;100.00;98993.27;106371;1278;58992;-76
2022/11/09 08:53:25;;;;;;;51.10;41.70;;;;;;;8.79;100.00;98995.09;106184;1285;74156;-74
2022/11/09 08:55:52;;;;;;;48.00;40.70;;;;;;;8.95;100.00;98994.66;106429;1284;69098;-76
2022/11/09 08:58:19;;;;;;;43.10;38.00;;;;;;;9.09;100.00;98993.15;106364;1284;64786;-76
2022/11/09 09:00:46;;;;;;;42.40;37.80;;;;;;;9.22;100.00;98988.61;106354;1278;58861;-77
2022/11/09 09:03:12;;;;;;;40.70;34.70;;;;;;;9.36;100.00;98984.73;106355;1278;58879;-76
2022/11/09 09:05:39;;;;;;;41.00;34.10;;;;;;;9.48;100.00;98982.03;106094;1296;64797;-76
2022/11/09 09:08:06;;;;;;;38.00;33.20;;;;;;;9.58;100.00;98980.70;106358;1285;59811;-76
2022/11/09 09:10:34;;;;;;;38.10;31.60;;;;;;;9.72;100.00;98978.23;106103;1294;64191;-76
2022/11/09 09:13:03;;;;;;;39.20;33.70;;;;;;;9.90;100.00;98981.33;106336;1285;60976;-75
2022/11/09 09:15:30;;;;;;;41.20;34.50;;;;;;;10.07;100.00;98978.60;106324;1285;61896;-77
2022/11/09 09:18:01;;;;;;;40.70;34.00;;;;;;;10.22;100.00;98976.05;106374;1277;67022;-77
2022/11/09 09:20:29;;;;;;;38.00;32.80;;;;;;;10.35;100.00;98978.27;106295;1284;59978;-75
2022/11/09 09:22:59;;;;;;;38.90;34.70;;;;;;;10.43;100.00;98982.16;106099;1281;64021;-76
2022/11/09 09:25:26;;;;;;;44.00;36.30;;;;;;;10.51;100.00;98984.27;106111;1282;58947;-77
2022/11/09 09:27:53;;;;;;;40.90;33.40;;;;;;;10.61;100.00;98984.30;106394;1284;58933;-76
2022/11/09 09:30:20;;;;;;;40.50;33.90;;;;;;;10.72;100.00;98979.31;106344;1277;64716;-77
2022/11/09 09:32:46;;;;;;;38.50;32.50;;;;;;;10.83;100.00;98976.59;106384;1284;69710;-76
2022/11/09 09:35:13;;;;;;;37.90;32.00;;;;;;;10.92;100.00;98971.04;106334;1285;72562;-77
2022/11/09 09:37:39;;;;;;;40.00;33.50;;;;;;;11.03;100.00;98974.02;106336;1285;58897;-76
2022/11/09 09:40:07;;;;;;;38.70;31.70;;;;;;;11.15;100.00;98972.27;106345;1285;61364;-77
2022/11/09 09:42:36;;;;;;;36.00;30.50;;;;;;;11.26;100.00;98977.73;106350;1276;75122;-76
2022/11/09 09:45:17;;;;;;;35.30;28.90;;;;;;;11.34;100.00;98977.67;106412;1278;61275;-78
2022/11/09 09:48:04;;;;;;;33.80;28.70;;;;;;;11.42;100.00;98975.84;106339;1276;65266;-76
2022/11/09 09:50:39;;;;;;;35.40;29.30;;;;;;;11.51;100.00;98975.60;106364;1285;58899;-75
2022/11/09 09:53:15;;;;;;;38.10;32.10;;;;;;;11.60;100.00;98975.50;106381;1277;58786;-76
2022/11/09 09:55:46;;;;;;;41.90;37.30;;;;;;;11.65;100.00;98975.84;106339;1278;65923;-77
2022/11/09 09:58:22;;;;;;;45.40;38.10;;;;;;;11.71;100.00;98975.77;105916;1284;59804;-77
2022/11/09 10:00:53;;;;;;;42.70;35.50;;;;;;;11.79;100.00;98971.09;106349;1278;71850;-76
2022/11/09 10:03:20;;;;;;;46.10;37.90;;;;;;;11.86;100.00;98972.96;106348;1285;59289;-76
2022/11/09 10:05:49;;;;;;;50.60;40.80;;;;;;;11.92;100.00;98973.26;106354;1282;58934;-76
2022/11/09 10:08:39;;;;;;;50.00;41.00;;;;;;;11.93;100.00;98971.55;106364;1285;66040;-75
2022/11/09 10:11:05;;;;;;;44.30;37.60;;;;;;;11.99;100.00;98969.13;106346;1285;60155;-76
2022/11/09 10:13:35;;;;;;;43.10;37.70;;;;;;;12.03;100.00;98973.34;106327;1285;59034;-75
2022/11/09 10:16:11;;;;;;;44.10;35.90;;;;;;;12.03;100.00;98965.32;106465;1282;59000;-75
2022/11/09 10:18:50;;;;;;;44.90;36.30;;;;;;;12.02;100.00;98965.55;106434;1284;59006;-76
2022/11/09 10:21:43;;;;;;;41.00;34.00;;;;;;;12.01;100.00;98964.73;106448;1278;65762;-76
2022/11/09 10:24:19;;;;;;;42.40;34.20;;;;;;;12.04;100.00;98961.70;106460;1278;60111;-77
2022/11/09 10:26:51;;;;;;;41.30;33.60;;;;;;;12.09;100.00;98963.10;106393;1283;64089;-77
2022/11/09 10:29:24;;;;;;;34.90;29.90;;;;;;;12.15;100.00;98963.17;106368;1278;58871;-77
2022/11/09 10:32:00;;;;;;;38.80;31.80;;;;;;;12.24;100.00;98959.67;106390;1285;58868;-77
2022/11/09 10:34:39;;;;;;;40.80;30.50;;;;;;;12.34;100.00;98956.95;106194;1288;66721;-76
2022/11/09 10:37:14;;;;;;;36.00;30.50;;;;;;;12.43;100.00;98951.46;106434;1286;60984;-75
2022/11/09 10:39:55;;;;;;;35.20;31.40;;;;;;;12.53;100.00;98947.71;106438;1278;62911;-76
2022/11/09 10:42:22;;;;;;;38.70;31.90;;;;;;;12.61;100.00;98947.12;106401;1286;59203;-76
2022/11/09 10:44:48;;;;;;;35.40;30.30;;;;;;;12.65;100.00;98950.36;106184;1288;58861;-77
2022/11/09 10:47:17;;;;;;;40.90;30.30;;;;;;;12.66;100.00;98946.67;106151;1281;64526;-77
2022/11/09 10:49:44;;;;;;;36.70;28.90;;;;;;;12.64;100.00;98945.84;106131;1286;59124;-77
2022/11/09 10:52:28;;;;;;;36.40;29.40;;;;;;;12.63;100.00;98940.71;106370;1279;62647;-78
2022/11/09 10:55:15;;;;;;;35.40;29.70;;;;;;;12.65;100.00;98937.69;106409;1286;58977;-76
2022/11/09 10:57:56;;;;;;;40.70;35.70;;;;;;;12.66;100.00;98935.09;106417;1285;58909;-75
2022/11/09 11:00:23;;;;;;;40.30;31.30;;;;;;;12.68;100.00;98933.83;106394;1286;64925;-76
2022/11/09 11:02:52;;;;;;;33.00;27.80;;;;;;;12.77;100.00;98935.15;106353;1278;60759;-76
2022/11/09 11:05:20;;;;;;;35.20;28.70;;;;;;;12.85;100.00;98934.02;106338;1286;73729;-77
2022/11/09 11:07:46;;;;;;;34.10;27.80;;;;;;;12.90;100.00;98927.53;106332;1286;59793;-77